Time;durP1;ratioP1;P1;durP2;ratioP2;P2;SDS_P1;SDS_P2;PMS_P1;PMS_P2;Temp;Humidity;BMP_temperature;BMP_pressure;BME280_temperature;BME280_humidity;BME280_pressure;Samples;Min_cycle;Max_cycle;Signal;HPM_P1;HPM_P2
2024/01/03 00:00:28;;;;;;;0.20;0.20;;;8.80;99.90;8.70;98012.00;;;;4899808;28;92842;-72
2024/01/03 00:02:55;;;;;;;0.63;0.20;;;8.80;99.90;8.70;98014.00;;;;4902655;28;95555;-69
2024/01/03 00:05:24;;;;;;;0.00;0.00;;;8.80;99.90;8.80;98008.00;;;;4900258;28;93041;-71
2024/01/03 00:07:51;;;;;;;0.20;0.20;;;8.80;99.90;8.80;98010.00;;;;4898576;28;94953;-71
2024/01/03 00:10:55;;;;;;;0.10;0.10;;;8.80;99.90;8.80;98012.00;;;;4899950;28;93386;-69
2024/01/03 00:13:29;;;;;;;0.00;0.00;;;8.90;99.90;8.80;98003.00;;;;4886728;28;93341;-71
2024/01/03 00:16:04;;;;;;;0.33;0.10;;;8.80;99.90;8.80;97989.00;;;;4900655;28;93150;-69
2024/01/03 00:18:37;;;;;;;0.10;0.10;;;8.90;99.90;8.80;97999.00;;;;4898903;28;94076;-70
2024/01/03 00:21:05;;;;;;;0.27;0.23;;;8.90;99.90;8.80;97986.00;;;;4897834;28;93914;-70
2024/01/03 00:23:56;;;;;;;1.43;0.13;;;9.20;99.90;8.80;97992.00;;;;4898377;28;104243;-70
2024/01/03 00:26:29;;;;;;;0.10;0.10;;;8.90;99.90;8.80;97992.00;;;;4903361;28;93249;-68
2024/01/03 00:28:56;;;;;;;0.20;0.20;;;8.90;99.90;8.80;97985.00;;;;4902174;28;93302;-68
2024/01/03 00:31:36;;;;;;;0.20;0.00;;;8.90;99.90;8.80;97983.00;;;;4898708;28;114824;-69
2024/01/03 00:34:13;;;;;;;0.00;0.00;;;8.90;99.90;8.80;97986.00;;;;4901082;28;93938;-68
2024/01/03 00:36:38;;;;;;;0.30;0.20;;;8.90;99.90;8.80;97986.00;;;;4899939;28;95159;-71
2024/01/03 00:39:04;;;;;;;0.10;0.10;;;8.80;99.90;8.80;97985.00;;;;4884175;28;121611;-71
2024/01/03 00:41:30;;;;;;;0.10;0.10;;;8.90;99.90;8.80;97990.00;;;;4899260;28;123542;-69
2024/01/03 00:43:56;;;;;;;0.00;0.00;;;8.90;99.90;8.80;97987.00;;;;4898097;28;110964;-69
2024/01/03 00:46:21;;;;;;;0.30;0.20;;;8.90;99.90;8.80;97996.00;;;;4898586;28;104043;-69
2024/01/03 00:48:47;;;;;;;0.00;0.00;;;8.90;99.90;8.80;97987.00;;;;4898404;28;94645;-69
2024/01/03 00:51:13;;;;;;;0.10;0.10;;;8.90;99.90;8.80;97994.00;;;;4898924;28;122875;-70
2024/01/03 00:53:38;;;;;;;0.10;0.10;;;8.90;99.90;8.80;97994.00;;;;4901030;28;110188;-69
2024/01/03 00:56:05;;;;;;;0.93;0.30;;;8.90;99.90;8.80;97993.00;;;;4898852;28;109617;-69
2024/01/03 00:58:31;;;;;;;0.00;0.00;;;8.90;99.90;8.80;97987.00;;;;4900590;28;94277;-68
2024/01/03 01:00:56;;;;;;;0.40;0.13;;;8.90;99.90;8.80;97994.00;;;;4899637;28;92580;-70
2024/01/03 01:03:22;;;;;;;0.37;0.20;;;8.90;99.90;8.80;97989.00;;;;4899302;28;110997;-70
2024/01/03 01:05:48;;;;;;;0.00;0.00;;;8.80;99.90;8.70;97994.00;;;;4899678;28;108970;-69
2024/01/03 01:08:13;;;;;;;0.10;0.10;;;8.80;99.90;8.70;97996.00;;;;4897785;28;123230;-70
2024/01/03 01:10:39;;;;;;;0.43;0.10;;;8.80;99.90;8.70;98002.00;;;;4898220;28;123086;-71
2024/01/03 01:13:05;;;;;;;0.00;0.00;;;8.80;99.90;8.70;97995.00;;;;4898231;28;104632;-70
2024/01/03 01:15:30;;;;;;;0.10;0.10;;;8.80;99.90;8.70;98006.00;;;;4898581;28;108640;-72
2024/01/03 01:17:56;;;;;;;0.10;0.10;;;8.80;99.90;8.70;98008.00;;;;4899967;28;122433;-71
2024/01/03 01:20:22;;;;;;;0.10;0.10;;;8.80;99.90;8.70;98011.00;;;;4903030;28;122713;-72
2024/01/03 01:22:47;;;;;;;0.20;0.20;;;8.80;99.90;8.80;98010.00;;;;4904199;28;92901;-72
2024/01/03 01:25:13;;;;;;;0.43;0.20;;;8.90;99.90;8.80;98005.00;;;;4901165;28;108541;-72
2024/01/03 01:27:39;;;;;;;0.00;0.00;;;8.90;99.90;8.80;98015.00;;;;4903835;28;93130;-72
2024/01/03 01:30:05;;;;;;;0.20;0.20;;;9.00;99.90;8.80;98025.00;;;;4903067;28;122622;-71
2024/01/03 01:32:31;;;;;;;1.03;0.10;;;8.90;99.90;8.90;98023.00;;;;4901647;28;100329;-71
2024/01/03 01:34:56;;;;;;;0.30;0.17;;;9.00;99.90;8.90;98014.00;;;;4903688;28;108672;-70
2024/01/03 01:37:22;;;;;;;0.07;0.07;;;9.00;99.90;8.90;98032.00;;;;4902493;28;93356;-72
2024/01/03 01:39:47;;;;;;;0.10;0.10;;;9.00;99.90;8.90;98031.00;;;;4902784;28;122716;-72
2024/01/03 01:42:13;;;;;;;0.20;0.20;;;9.00;99.90;9.00;98014.00;;;;4904157;28;110352;-71
2024/01/03 01:44:39;;;;;;;0.10;0.10;;;9.10;99.90;9.00;98034.00;;;;4903413;28;93163;-71
2024/01/03 01:47:06;;;;;;;0.10;0.10;;;9.00;99.90;9.00;98025.00;;;;4900309;28;122007;-70
2024/01/03 01:49:32;;;;;;;0.00;0.00;;;9.10;99.90;9.00;98029.00;;;;4917887;28;109017;-69
2024/01/03 01:51:58;;;;;;;0.10;0.10;;;9.10;99.90;9.10;98041.00;;;;4903897;28;93290;-71
2024/01/03 01:54:25;;;;;;;0.00;0.00;;;9.20;99.90;9.10;98032.00;;;;4902039;28;95869;-71
2024/01/03 01:56:50;;;;;;;0.03;0.03;;;9.20;99.90;9.10;98036.00;;;;4901143;28;114388;-70
2024/01/03 01:59:19;;;;;;;0.10;0.10;;;9.20;99.90;9.10;98033.00;;;;4899589;28;123640;-70
2024/01/03 02:01:45;;;;;;;4.63;0.20;;;9.20;99.90;9.20;98043.00;;;;4903164;28;93112;-71
2024/01/03 02:04:11;;;;;;;0.07;0.07;;;9.30;99.90;9.20;98044.00;;;;4902583;28;94578;-69
2024/01/03 02:06:37;;;;;;;0.10;0.10;;;9.30;99.90;9.20;98040.00;;;;4901483;28;122724;-69
2024/01/03 02:09:02;;;;;;;0.00;0.00;;;9.40;99.90;9.30;98046.00;;;;4904544;28;121708;-70
2024/01/03 02:11:28;;;;;;;0.10;0.10;;;9.40;99.90;9.30;98037.00;;;;4903006;28;110134;-69
2024/01/03 02:13:53;;;;;;;0.10;0.10;;;9.40;99.90;9.40;98052.00;;;;4903935;28;107850;-69
2024/01/03 02:16:19;;;;;;;0.00;0.00;;;9.50;99.90;9.50;98046.00;;;;4901386;28;121421;-69
2024/01/03 02:18:46;;;;;;;0.37;0.17;;;9.50;99.90;9.50;98047.00;;;;4902082;28;122091;-69
2024/01/03 02:21:16;;;;;;;0.13;0.10;;;9.60;99.90;9.50;98049.00;;;;4907961;28;109674;-69
2024/01/03 02:23:43;;;;;;;0.07;0.07;;;9.60;99.90;9.50;98041.00;;;;4904860;28;92991;-69
2024/01/03 02:26:09;;;;;;;0.00;0.00;;;9.70;99.90;9.60;98045.00;;;;4902556;28;97865;-69
2024/01/03 02:28:36;;;;;;;0.10;0.10;;;9.60;99.90;9.60;98046.00;;;;4899911;28;92982;-67
2024/01/03 02:31:02;;;;;;;0.10;0.10;;;9.70;99.90;9.60;98042.00;;;;4903083;28;92951;-68
2024/01/03 02:33:28;;;;;;;0.07;0.07;;;9.70;99.90;9.70;98036.00;;;;4901898;28;93000;-68
2024/01/03 02:35:53;;;;;;;0.13;0.13;;;9.80;99.90;9.70;98039.00;;;;4900686;28;122908;-68
2024/01/03 02:38:21;;;;;;;0.00;0.00;;;9.70;99.90;9.70;98043.00;;;;4901097;28;122858;-68
2024/01/03 02:40:47;;;;;;;0.10;0.10;;;9.70;99.90;9.70;98040.00;;;;4901132;28;92823;-68
2024/01/03 02:43:13;;;;;;;0.00;0.00;;;9.80;99.90;9.80;98049.00;;;;4902424;28;93133;-68
2024/01/03 02:45:38;;;;;;;0.20;0.10;;;9.80;99.90;9.80;98047.00;;;;4902511;28;123553;-68
2024/01/03 02:48:05;;;;;;;0.20;0.20;;;9.90;99.90;9.80;98033.00;;;;4902385;28;122822;-69
2024/01/03 02:50:30;;;;;;;0.00;0.00;;;9.90;99.90;9.80;98040.00;;;;4900548;28;99662;-69
2024/01/03 02:52:56;;;;;;;0.10;0.10;;;9.80;99.90;9.70;98046.00;;;;4900130;28;107247;-68
2024/01/03 02:55:22;;;;;;;0.10;0.10;;;9.80;99.90;9.80;98044.00;;;;4900849;28;122335;-68
2024/01/03 02:57:47;;;;;;;0.10;0.10;;;9.80;99.90;9.80;98054.00;;;;4902348;28;108918;-69
2024/01/03 03:00:13;;;;;;;0.10;0.10;;;9.80;99.90;9.80;98059.00;;;;4901240;28;111577;-67
2024/01/03 03:02:40;;;;;;;0.00;0.00;;;9.90;99.90;9.90;98048.00;;;;4902616;28;92341;-68
2024/01/03 03:05:06;;;;;;;0.13;0.13;;;9.90;99.90;9.90;98052.00;;;;4906459;28;94192;-67
2024/01/03 03:07:32;;;;;;;0.10;0.10;;;10.00;99.90;10.00;98060.00;;;;4903963;28;104621;-68
2024/01/03 03:09:58;;;;;;;0.00;0.00;;;10.00;99.90;10.00;98061.00;;;;4902623;28;95983;-69
2024/01/03 03:12:23;;;;;;;0.10;0.10;;;10.00;99.90;10.00;98053.00;;;;4900680;28;96022;-68
2024/01/03 03:14:49;;;;;;;0.10;0.10;;;10.10;99.90;10.10;98063.00;;;;4900632;28;93893;-69
2024/01/03 03:17:15;;;;;;;0.00;0.00;;;10.20;99.90;10.10;98060.00;;;;4900108;28;93856;-70
2024/01/03 03:19:42;;;;;;;0.20;0.10;;;10.10;99.90;10.10;98066.00;;;;4907254;28;92993;-69
2024/01/03 03:22:07;;;;;;;0.10;0.10;;;10.10;99.90;10.00;98061.00;;;;4908784;28;93209;-68
2024/01/03 03:24:33;;;;;;;0.00;0.00;;;10.10;99.90;10.00;98060.00;;;;4903101;28;121313;-70
2024/01/03 03:26:59;;;;;;;0.10;0.10;;;10.10;99.90;9.90;98059.00;;;;4917810;28;121134;-70
2024/01/03 03:29:24;;;;;;;0.00;0.00;;;10.00;99.90;9.90;98069.00;;;;4909798;28;109256;-69
2024/01/03 03:31:50;;;;;;;2.30;0.10;;;10.00;99.90;9.90;98051.00;;;;4898579;28;99714;-70
2024/01/03 03:34:17;;;;;;;0.33;0.20;;;10.00;99.90;9.90;98070.00;;;;4898158;28;124371;-71
2024/01/03 03:36:43;;;;;;;0.20;0.20;;;10.00;99.90;9.90;98058.00;;;;4900263;28;94953;-69
2024/01/03 03:39:09;;;;;;;0.10;0.10;;;10.00;99.90;9.80;98066.00;;;;4901365;28;92798;-70
2024/01/03 03:41:36;;;;;;;0.17;0.17;;;9.90;99.90;9.80;98061.00;;;;4901377;28;92762;-72
2024/01/03 03:44:01;;;;;;;1.67;0.27;;;9.90;99.90;9.80;98060.00;;;;4898017;28;93273;-70
2024/01/03 03:46:27;;;;;;;0.70;0.17;;;9.90;99.90;9.80;98056.00;;;;4899623;28;94206;-71
2024/01/03 03:48:53;;;;;;;0.13;0.13;;;9.90;99.90;9.80;98056.00;;;;4900085;28;93349;-70
2024/01/03 03:51:18;;;;;;;0.10;0.10;;;9.90;99.90;9.80;98071.00;;;;4902653;28;108163;-71
2024/01/03 03:53:44;;;;;;;0.53;0.10;;;9.90;99.90;9.70;98058.00;;;;4902819;28;93864;-71
2024/01/03 03:56:10;;;;;;;0.10;0.10;;;9.80;99.90;9.70;98054.00;;;;4898888;28;122269;-71
2024/01/03 03:58:35;;;;;;;0.03;0.03;;;9.70;99.90;9.60;98062.00;;;;4902627;28;110023;-71
2024/01/03 04:01:02;;;;;;;0.00;0.00;;;9.70;99.90;9.60;98062.00;;;;4902252;28;108446;-69
2024/01/03 04:03:28;;;;;;;0.73;0.10;;;9.70;99.90;9.60;98072.00;;;;4900943;28;93435;-69
2024/01/03 04:05:53;;;;;;;0.00;0.00;;;9.70;99.90;9.70;98057.00;;;;4900488;28;121402;-70
2024/01/03 04:08:19;;;;;;;0.30;0.10;;;9.70;99.90;9.70;98068.00;;;;4900636;28;109427;-71
2024/01/03 04:10:45;;;;;;;0.10;0.10;;;9.80;99.90;9.80;98059.00;;;;4901292;28;93259;-69
2024/01/03 04:13:10;;;;;;;0.03;0.03;;;9.80;99.90;9.90;98062.00;;;;4900401;28;123766;-69
2024/01/03 04:15:36;;;;;;;0.10;0.10;;;9.80;99.90;9.90;98077.00;;;;4900502;28;117942;-69
2024/01/03 04:18:04;;;;;;;0.10;0.10;;;10.00;99.90;10.00;98069.00;;;;4900844;28;107840;-69
2024/01/03 04:20:29;;;;;;;0.20;0.20;;;10.00;99.90;10.00;98069.00;;;;4903404;28;93082;-71
2024/01/03 04:22:55;;;;;;;0.10;0.10;;;10.10;99.90;10.10;98071.00;;;;4882584;28;123110;-70
2024/01/03 04:25:21;;;;;;;0.47;0.30;;;10.10;99.90;10.10;98080.00;;;;4888978;28;105965;-70
2024/01/03 04:27:46;;;;;;;0.60;0.57;;;10.10;99.90;10.10;98085.00;;;;4899169;28;109636;-69
2024/01/03 04:30:12;;;;;;;1.13;0.30;;;10.20;99.90;10.10;98080.00;;;;4901305;28;109053;-71
2024/01/03 04:32:38;;;;;;;0.47;0.30;;;10.20;99.90;10.10;98089.00;;;;4902381;28;118049;-70
2024/01/03 04:35:05;;;;;;;0.33;0.23;;;10.20;99.90;10.20;98098.00;;;;4897594;28;122846;-69
2024/01/03 04:37:32;;;;;;;0.20;0.20;;;10.20;99.90;10.20;98096.00;;;;4902199;28;98355;-69
2024/01/03 04:39:57;;;;;;;1.23;0.70;;;10.20;99.90;10.20;98102.00;;;;4902167;28;95842;-69
2024/01/03 04:42:23;;;;;;;0.30;0.30;;;10.20;99.90;10.10;98092.00;;;;4900920;28;123365;-71
2024/01/03 04:44:49;;;;;;;0.10;0.10;;;10.20;99.90;10.10;98102.00;;;;4906203;28;121140;-69
2024/01/03 04:47:14;;;;;;;0.30;0.30;;;10.20;99.90;10.10;98102.00;;;;4899423;28;110524;-70
2024/01/03 04:49:40;;;;;;;0.20;0.20;;;10.10;99.90;10.00;98091.00;;;;4901633;28;108915;-69
2024/01/03 04:52:06;;;;;;;0.20;0.20;;;10.10;99.90;10.00;98102.00;;;;4901405;28;122798;-69
2024/01/03 04:54:31;;;;;;;0.23;0.20;;;10.10;99.90;10.00;98098.00;;;;4903942;28;123456;-69
2024/01/03 04:56:57;;;;;;;0.40;0.30;;;10.10;99.90;10.00;98115.00;;;;4906692;28;111353;-70
2024/01/03 04:59:23;;;;;;;0.10;0.10;;;10.00;99.90;9.90;98112.00;;;;4911158;28;108245;-69
2024/01/03 05:01:48;;;;;;;2.63;0.30;;;10.00;99.90;9.90;98108.00;;;;4904883;28;122896;-70
2024/01/03 05:04:14;;;;;;;0.60;0.30;;;10.00;99.90;9.90;98117.00;;;;4911283;28;122117;-70
2024/01/03 05:06:41;;;;;;;0.10;0.10;;;9.90;99.90;9.90;98117.00;;;;4907086;28;110563;-70
2024/01/03 05:09:07;;;;;;;0.10;0.10;;;9.90;99.90;9.90;98115.00;;;;4906578;28;92926;-69
2024/01/03 05:11:33;;;;;;;0.10;0.10;;;9.90;99.90;9.90;98137.00;;;;4900041;28;124516;-72
2024/01/03 05:13:59;;;;;;;0.20;0.10;;;9.90;99.90;9.90;98110.00;;;;4927477;28;94706;-71
2024/01/03 05:16:24;;;;;;;0.10;0.10;;;9.90;99.90;9.90;98118.00;;;;4918688;28;94564;-70
2024/01/03 05:18:50;;;;;;;0.10;0.10;;;9.90;99.90;9.90;98115.00;;;;4923219;28;108748;-71
2024/01/03 05:21:16;;;;;;;0.10;0.10;;;9.90;99.90;9.90;98133.00;;;;4905021;28;121895;-70
2024/01/03 05:23:41;;;;;;;0.10;0.10;;;9.90;99.90;9.90;98120.00;;;;4909136;28;119849;-69
2024/01/03 05:26:07;;;;;;;0.20;0.13;;;9.90;99.90;9.90;98127.00;;;;4905268;28;99453;-71
2024/01/03 05:28:33;;;;;;;0.40;0.20;;;10.00;99.90;9.80;98130.00;;;;4908746;28;108697;-71
2024/01/03 05:30:58;;;;;;;0.10;0.10;;;9.90;99.90;9.80;98132.00;;;;4920496;28;120567;-70
2024/01/03 05:33:25;;;;;;;0.13;0.10;;;9.90;99.90;9.80;98142.00;;;;4905186;28;121888;-70
2024/01/03 05:35:51;;;;;;;1.33;0.30;;;9.90;99.90;9.80;98141.00;;;;4905806;28;95035;-72
2024/01/03 05:38:17;;;;;;;0.20;0.20;;;9.90;99.90;9.90;98139.00;;;;4909768;28;95240;-70
2024/01/03 05:40:44;;;;;;;0.00;0.00;;;9.90;99.90;9.80;98150.00;;;;4907070;28;93737;-71
2024/01/03 05:43:11;;;;;;;0.10;0.10;;;9.90;99.90;9.80;98137.00;;;;4906129;28;122341;-70
2024/01/03 05:45:37;;;;;;;0.10;0.10;;;9.90;99.90;9.70;98153.00;;;;4906281;28;93109;-72
2024/01/03 05:48:03;;;;;;;0.07;0.07;;;9.80;99.90;9.80;98135.00;;;;4908873;28;93355;-72
2024/01/03 05:50:29;;;;;;;0.10;0.10;;;9.80;99.90;9.80;98140.00;;;;4923411;28;115567;-71
2024/01/03 05:52:54;;;;;;;1.17;0.27;;;9.80;99.90;9.80;98140.00;;;;4910079;28;121626;-74
2024/01/03 05:55:20;;;;;;;1.23;0.50;;;9.80;99.90;9.70;98142.00;;;;4908051;28;110195;-70
2024/01/03 05:57:46;;;;;;;1.53;0.90;;;9.80;99.90;9.70;98143.00;;;;4907268;28;109543;-70
2024/01/03 06:00:13;;;;;;;0.43;0.33;;;9.80;99.90;9.70;98148.00;;;;4907566;28;113060;-70
2024/01/03 06:02:39;;;;;;;1.10;0.70;;;9.70;99.90;9.70;98155.00;;;;4904451;28;96042;-71
2024/01/03 06:05:05;;;;;;;1.37;0.40;;;9.70;99.90;9.60;98157.00;;;;4903302;28;92894;-70
2024/01/03 06:07:31;;;;;;;1.57;0.60;;;9.70;99.90;9.60;98153.00;;;;4903765;28;93190;-71
2024/01/03 06:09:57;;;;;;;1.30;0.67;;;9.70;99.90;9.60;98164.00;;;;4904106;28;122523;-70
2024/01/03 06:12:23;;;;;;;0.37;0.37;;;9.70;99.90;9.60;98154.00;;;;4904860;28;122376;-69
2024/01/03 06:14:49;;;;;;;0.50;0.40;;;9.70;99.90;9.60;98152.00;;;;4906410;28;93001;-68
2024/01/03 06:17:15;;;;;;;0.83;0.43;;;9.60;99.90;9.60;98159.00;;;;4907163;28;109114;-69
2024/01/03 06:19:40;;;;;;;0.50;0.43;;;9.60;99.90;9.50;98162.00;;;;4902962;28;121952;-71
2024/01/03 06:22:06;;;;;;;3.80;0.80;;;9.50;99.90;9.50;98166.00;;;;4902685;28;95860;-71
2024/01/03 06:24:32;;;;;;;1.70;0.97;;;9.50;99.90;9.40;98169.00;;;;4901568;28;109858;-72
2024/01/03 06:26:57;;;;;;;2.37;0.43;;;9.50;99.90;9.40;98167.00;;;;4904312;28;108845;-71
2024/01/03 06:29:23;;;;;;;0.40;0.40;;;9.60;99.90;9.40;98171.00;;;;4901864;28;123154;-70
2024/01/03 06:31:48;;;;;;;1.90;0.30;;;9.60;99.90;9.50;98176.00;;;;4902440;28;121149;-69
2024/01/03 06:34:14;;;;;;;0.10;0.10;;;9.50;99.90;9.50;98170.00;;;;4905319;28;99143;-69
2024/01/03 06:36:40;;;;;;;0.07;0.07;;;9.50;99.90;9.50;98187.00;;;;4903038;28;109499;-70
2024/01/03 06:39:05;;;;;;;0.33;0.13;;;9.50;99.90;9.50;98185.00;;;;4904058;28;122936;-71
2024/01/03 06:41:31;;;;;;;0.10;0.10;;;9.50;99.90;9.50;98195.00;;;;4901929;28;120785;-71
2024/01/03 06:43:57;;;;;;;0.40;0.20;;;9.50;99.90;9.50;98198.00;;;;4901906;28;109958;-70
2024/01/03 06:46:27;;;;;;;0.20;0.10;;;9.50;99.90;9.40;98209.00;;;;4901223;28;108454;-71
2024/01/03 06:48:53;;;;;;;0.70;0.20;;;9.50;99.90;9.40;98206.00;;;;4909653;28;96562;-73
2024/01/03 06:51:22;;;;;;;0.10;0.10;;;9.50;99.90;9.40;98209.00;;;;4902139;28;112959;-71
2024/01/03 06:53:48;;;;;;;0.10;0.10;;;9.50;99.90;9.40;98216.00;;;;4902493;28;93075;-72
2024/01/03 06:56:23;;;;;;;0.43;0.30;;;9.50;99.90;9.40;98219.00;;;;4900889;28;109008;-71
2024/01/03 06:58:49;;;;;;;2.13;0.20;;;9.50;99.90;9.40;98216.00;;;;4893367;28;94492;-72
2024/01/03 07:01:15;;;;;;;0.00;0.00;;;9.50;99.90;9.40;98227.00;;;;4900977;28;93444;-71
2024/01/03 07:03:41;;;;;;;0.00;0.00;;;9.60;99.90;9.40;98228.00;;;;4905583;28;92703;-73
2024/01/03 07:06:07;;;;;;;0.10;0.10;;;9.50;99.90;9.40;98223.00;;;;4902812;28;101928;-72
2024/01/03 07:08:32;;;;;;;0.10;0.10;;;9.50;99.90;9.40;98229.00;;;;4901957;28;123617;-72
2024/01/03 07:10:58;;;;;;;1.93;0.27;;;9.50;99.90;9.40;98231.00;;;;4901623;28;94263;-73
2024/01/03 07:13:24;;;;;;;0.10;0.10;;;9.50;99.90;9.40;98231.00;;;;4905954;28;110425;-72
2024/01/03 07:15:49;;;;;;;0.20;0.10;;;9.50;99.90;9.50;98230.00;;;;4902873;28;92735;-71
2024/01/03 07:18:15;;;;;;;0.03;0.00;;;9.50;99.90;9.50;98235.00;;;;4901708;28;123594;-72
2024/01/03 07:20:41;;;;;;;0.17;0.17;;;9.50;99.90;9.50;98237.00;;;;4903824;28;122086;-72
2024/01/03 07:23:07;;;;;;;0.43;0.20;;;9.50;99.90;9.40;98244.00;;;;4896635;28;110756;-71
2024/01/03 07:25:33;;;;;;;0.10;0.10;;;9.50;99.90;9.40;98240.00;;;;4901235;28;93159;-73
2024/01/03 07:27:59;;;;;;;0.87;0.20;;;9.50;99.90;9.50;98240.00;;;;4897262;28;120729;-71
2024/01/03 07:30:26;;;;;;;0.93;0.30;;;9.60;99.90;9.50;98245.00;;;;4900523;28;120335;-72
2024/01/03 07:32:56;;;;;;;4.03;0.40;;;9.60;99.90;9.50;98245.00;;;;4898380;28;93722;-71
2024/01/03 07:35:25;;;;;;;0.10;0.10;;;9.50;99.90;9.50;98251.00;;;;4899504;28;93038;-73
2024/01/03 07:37:56;;;;;;;1.90;0.30;;;9.60;99.90;9.50;98251.00;;;;4899742;28;111263;-70
2024/01/03 07:40:22;;;;;;;0.10;0.10;;;9.60;99.90;9.60;98254.00;;;;4895784;28;122757;-71
2024/01/03 07:42:48;;;;;;;0.70;0.20;;;9.60;99.90;9.60;98256.00;;;;4900934;28;93616;-72
2024/01/03 07:45:13;;;;;;;6.27;0.30;;;9.60;99.90;9.60;98242.00;;;;4898158;28;106905;-73
2024/01/03 07:47:39;;;;;;;0.20;0.20;;;9.70;99.90;9.80;98248.00;;;;4898564;28;122600;-71
2024/01/03 07:50:05;;;;;;;0.63;0.37;;;10.20;99.90;9.90;98246.00;;;;4899828;28;118351;-72
2024/01/03 07:52:31;;;;;;;0.20;0.20;;;10.00;99.90;10.10;98251.00;;;;4897159;28;92814;-72
2024/01/03 07:54:57;;;;;;;0.20;0.20;;;10.10;99.90;10.20;98251.00;;;;4897427;28;107426;-70
2024/01/03 07:57:22;;;;;;;2.07;0.63;;;10.20;99.90;10.40;98232.00;;;;4895611;28;93234;-69
2024/01/03 07:59:48;;;;;;;0.20;0.20;;;10.40;99.90;10.50;98256.00;;;;4896583;28;121816;-72
2024/01/03 08:02:14;;;;;;;0.53;0.20;;;10.50;99.90;10.70;98251.00;;;;4895800;28;94494;-75
2024/01/03 08:04:40;;;;;;;0.67;0.40;;;10.70;99.90;10.80;98259.00;;;;4901358;28;108718;-71
2024/01/03 08:07:07;;;;;;;0.30;0.30;;;10.80;99.90;10.90;98256.00;;;;4899317;28;95219;-72
2024/01/03 08:09:34;;;;;;;0.20;0.20;;;11.00;99.90;10.90;98256.00;;;;4895754;28;122493;-71
2024/01/03 08:12:00;;;;;;;1.60;0.37;;;11.00;99.90;10.80;98266.00;;;;4897430;28;93108;-73
2024/01/03 08:14:26;;;;;;;0.23;0.20;;;10.90;99.90;10.70;98259.00;;;;4904234;28;93076;-73
2024/01/03 08:16:52;;;;;;;0.80;0.33;;;10.90;99.90;10.90;98269.00;;;;4896012;28;122817;-74
2024/01/03 08:19:18;;;;;;;0.30;0.30;;;10.90;99.90;11.00;98274.00;;;;4903652;28;113750;-71
2024/01/03 08:21:44;;;;;;;5.40;0.50;;;11.00;99.90;11.00;98274.00;;;;4899302;28;94202;-72
2024/01/03 08:24:09;;;;;;;0.50;0.50;;;11.10;99.90;10.90;98280.00;;;;4901815;28;99938;-71
2024/01/03 08:26:35;;;;;;;0.30;0.30;;;11.00;99.90;10.90;98273.00;;;;4896431;28;123149;-71
2024/01/03 08:29:00;;;;;;;0.87;0.30;;;11.00;99.90;10.90;98280.00;;;;4895036;28;123960;-70
2024/01/03 08:31:26;;;;;;;1.37;0.53;;;10.90;99.90;11.00;98268.00;;;;4897093;28;109952;-70
2024/01/03 08:33:52;;;;;;;1.37;0.40;;;11.10;99.90;11.20;98274.00;;;;4896643;28;110640;-72
2024/01/03 08:36:17;;;;;;;2.57;0.80;;;11.00;99.90;11.30;98270.00;;;;4873397;28;121824;-70
2024/01/03 08:38:43;;;;;;;0.40;0.20;;;11.40;99.90;11.50;98286.00;;;;4894122;28;122777;-70
2024/01/03 08:41:17;;;;;;;0.43;0.37;;;11.50;99.90;11.70;98281.00;;;;4878176;28;110089;-70
2024/01/03 08:43:43;;;;;;;1.10;0.73;;;11.70;99.90;11.80;98279.00;;;;4899511;28;93569;-70
2024/01/03 08:46:09;;;;;;;1.80;0.33;;;11.80;99.90;11.70;98286.00;;;;4901794;28;93195;-72
2024/01/03 08:48:36;;;;;;;0.50;0.50;;;11.80;99.90;11.80;98275.00;;;;4904665;28;93004;-72
2024/01/03 08:51:02;;;;;;;1.37;0.73;;;11.80;99.90;11.80;98284.00;;;;4903892;28;99476;-69
2024/01/03 08:53:28;;;;;;;1.73;0.50;;;11.80;99.90;12.00;98275.00;;;;4897010;28;99424;-74
2024/01/03 08:55:53;;;;;;;0.30;0.23;;;12.00;99.90;12.10;98287.00;;;;4894910;28;124372;-71
2024/01/03 08:58:19;;;;;;;1.27;0.50;;;12.10;99.90;12.00;98280.00;;;;4899537;28;120639;-71
2024/01/03 09:00:45;;;;;;;0.43;0.30;;;12.00;99.90;11.90;98289.00;;;;4897819;28;93023;-73
2024/01/03 09:03:11;;;;;;;1.80;0.67;;;11.90;99.90;11.70;98287.00;;;;4895560;28;93411;-70
2024/01/03 09:05:37;;;;;;;0.40;0.30;;;11.80;99.90;11.70;98284.00;;;;4897952;28;123078;-74
2024/01/03 09:08:03;;;;;;;4.30;0.50;;;11.80;99.90;11.60;98283.00;;;;4899312;28;93253;-73
2024/01/03 09:10:29;;;;;;;3.03;1.13;;;11.70;99.90;11.50;98282.00;;;;4898738;28;100132;-72
2024/01/03 09:12:55;;;;;;;1.60;0.53;;;11.60;99.90;11.40;98293.00;;;;4895688;28;92998;-70
2024/01/03 09:15:20;;;;;;;0.97;0.60;;;11.50;99.90;11.30;98295.00;;;;4899830;28;123342;-71
2024/01/03 09:17:46;;;;;;;1.23;0.50;;;11.40;99.90;11.30;98300.00;;;;4900923;28;122592;-72
2024/01/03 09:20:12;;;;;;;2.67;0.53;;;11.40;99.90;11.30;98294.00;;;;4897073;28;93176;-71
2024/01/03 09:22:38;;;;;;;0.73;0.60;;;11.40;99.90;11.30;98297.00;;;;4895326;28;92987;-73
2024/01/03 09:25:05;;;;;;;0.50;0.50;;;11.30;99.90;11.30;98300.00;;;;4897625;28;108197;-71
2024/01/03 09:27:30;;;;;;;3.70;0.47;;;11.30;99.90;11.30;98283.00;;;;4898322;28;110023;-71
2024/01/03 09:29:56;;;;;;;1.00;0.40;;;11.30;99.90;11.30;98297.00;;;;4897440;28;93247;-73
2024/01/03 09:32:22;;;;;;;0.43;0.30;;;11.40;99.90;11.30;98286.00;;;;4901721;28;92446;-72
2024/01/03 09:34:47;;;;;;;0.57;0.57;;;11.30;99.90;11.30;98305.00;;;;4897388;28;122579;-71
2024/01/03 09:37:16;;;;;;;0.67;0.30;;;11.40;99.90;11.40;98293.00;;;;4895501;28;122307;-72
2024/01/03 09:39:42;;;;;;;0.30;0.20;;;11.40;99.90;11.40;98302.00;;;;4907449;28;93976;-71
2024/01/03 09:42:09;;;;;;;0.40;0.40;;;11.80;99.90;11.40;98303.00;;;;4898328;28;107016;-72
2024/01/03 09:44:35;;;;;;;0.33;0.20;;;11.40;99.90;11.40;98295.00;;;;4901184;28;122588;-72
2024/01/03 09:47:01;;;;;;;2.33;0.63;;;11.50;99.90;11.40;98294.00;;;;4910253;28;93634;-71
2024/01/03 09:49:27;;;;;;;1.80;0.40;;;11.40;99.90;11.50;98291.00;;;;4899716;28;94027;-71
2024/01/03 09:51:56;;;;;;;0.20;0.20;;;11.50;99.90;11.50;98306.00;;;;4900029;28;108950;-71
2024/01/03 09:54:22;;;;;;;0.53;0.53;;;11.50;99.90;11.50;98302.00;;;;4898404;28;94646;-72
2024/01/03 09:56:48;;;;;;;2.23;0.47;;;11.50;99.90;11.60;98294.00;;;;4902632;28;122616;-71
2024/01/03 09:59:17;;;;;;;0.40;0.30;;;11.60;99.90;11.60;98300.00;;;;4897176;28;110495;-72
2024/01/03 10:01:58;;;;;;;1.13;0.47;;;11.70;99.90;11.70;98304.00;;;;4905220;28;93594;-73
2024/01/03 10:04:24;;;;;;;0.67;0.33;;;11.70;99.90;11.80;98302.00;;;;4901371;28;93944;-71
2024/01/03 10:06:54;;;;;;;3.10;0.60;;;11.80;99.90;11.80;98298.00;;;;4897576;28;94853;-70
2024/01/03 10:09:21;;;;;;;0.90;0.37;;;11.90;99.90;12.10;98297.00;;;;4896423;28;93225;-69
2024/01/03 10:11:54;;;;;;;0.30;0.20;;;12.00;99.90;12.20;98297.00;;;;4900357;28;93829;-71
2024/01/03 10:14:24;;;;;;;0.20;0.20;;;12.20;99.90;12.20;98295.00;;;;4904867;28;94895;-72
2024/01/03 10:16:49;;;;;;;1.97;0.30;;;12.30;99.90;12.20;98300.00;;;;4906918;28;94077;-71
2024/01/03 10:19:19;;;;;;;1.27;0.30;;;12.20;99.90;12.20;98302.00;;;;4902215;28;92898;-72
2024/01/03 10:21:50;;;;;;;0.57;0.47;;;12.20;99.90;12.10;98303.00;;;;4901379;28;92568;-70
2024/01/03 10:24:24;;;;;;;1.20;0.57;;;12.20;99.90;12.10;98294.00;;;;4908123;28;93965;-71
2024/01/03 10:26:50;;;;;;;0.80;0.50;;;12.20;99.90;12.00;98293.00;;;;4888339;28;93406;-73
2024/01/03 10:29:20;;;;;;;0.77;0.17;;;12.10;99.90;12.00;98288.00;;;;4900851;28;94747;-72
2024/01/03 10:31:48;;;;;;;0.97;0.40;;;12.00;99.90;12.00;98292.00;;;;4900970;28;93092;-70
2024/01/03 10:34:22;;;;;;;4.50;0.40;;;12.00;99.90;12.00;98296.00;;;;4897551;28;93321;-73
2024/01/03 10:36:49;;;;;;;0.70;0.60;;;12.00;99.90;12.00;98294.00;;;;4900658;28;97941;-72
2024/01/03 10:39:18;;;;;;;0.50;0.40;;;12.00;99.90;11.90;98289.00;;;;4900026;28;92955;-72
2024/01/03 10:41:46;;;;;;;0.60;0.33;;;12.00;99.90;12.00;98285.00;;;;4899982;28;97420;-73
2024/01/03 10:44:17;;;;;;;2.47;0.50;;;12.00;99.90;11.90;98304.00;;;;4914558;28;92733;-70
2024/01/03 10:46:44;;;;;;;1.00;0.57;;;12.00;99.90;11.90;98278.00;;;;4914582;28;92916;-70
2024/01/03 10:49:10;;;;;;;3.03;0.63;;;12.00;99.90;11.90;98288.00;;;;4903698;28;93340;-71
2024/01/03 10:51:42;;;;;;;1.33;0.37;;;11.90;99.90;11.90;98281.00;;;;4900666;28;93098;-72
2024/01/03 10:54:13;;;;;;;2.73;0.63;;;12.00;99.90;11.90;98275.00;;;;4901260;28;94135;-72
2024/01/03 10:56:46;;;;;;;2.00;1.20;;;11.90;99.90;11.90;98275.00;;;;4902374;28;93507;-71